Gunnison, CO

21:19 MDT le 24 mai 2015 (GMT -0600)
Gunnison County | | Change Station
CLOSE
Current Station
Aéroport
Location: Gunnison,
Altitude: 7674 ft
Stations météo à proximité

Alt. 7674 ft 38.53 °N, 106.93 °W | Updated 4 minutes ago

Partiellement nuageux
Partiellement nuageux
45 ° F
Paraît 41 ° F
N
7
Vent Variable Vent de Nord

Aujourd'hui
Haut(e) -- | Bas -- ° F
--% Risque de précip.
Hier
Haut(e) -- | Bas -- ° F
Precip. -- pouce
5:49 AM 8:20 PM
Lune montante, 44% visible
Pression 30.00 pouce
Visibilité 10.0 Miles terrestres
Nuages Nuageux 6500 ft
Refroidissement éolien 41 ° F
Point de rosée 32 ° F
Humidité 61%
Précipitations 0.00 pouce
Profondeur de la couche neigeuse Non disponible.
UV 0 sur 12
Pollen 7.00 sur 12
Qualité de l'air Non disponible.
Flu Activity Sporadic
METAR KGUC 250315Z AUTO 35006KT 10SM BKN065 07/00 A3000 RMK AO1

More Conditions Fewer Conditions

Pression 30.00 pouce
Visibilité 10.0 Miles terrestres
Nuages Nuageux 6500 ft
Refroidissement éolien 41 ° F
Point de rosée 32 ° F
Humidité 61%
Précipitations 0.00 pouce
Profondeur de la couche neigeuse Non disponible.
UV 0 sur 12
Pollen 7.00 sur 12
Qualité de l'air Non disponible.
Flu Activity Sporadic
METAR KGUC 250315Z AUTO 35006KT 10SM BKN065 07/00 A3000 RMK AO1

More Conditions Fewer Conditions

10-Day Weather Forecast

Almanac

Astronomie

May. 24, 2015 Lever Coucher
Temps réel
Crépuscule civil
Crépuscule nautique
Crépuscule astronomique
Lune
Durée de lumière visible
Longueur du jour
Tomorrow will be .
, % of the Moon is Illuminated

Extrêmes aujourd'hui

State Highs State Lows

Community

WunderPhotos

Upload Photos

1,823,944 Photos téléchargées !

WunderBlogs® & News

Nearby

Qualité de l'air

  Qualité de l'air Indice de la qualité de l'air Polluant
Not available.

Épaisseur de neige

Station Depth Altitude

Activité sismique

Ville Distance Mag. Time & Date
Minimum magnitude displayed is 2.5.

Températures des eaux côtières

Lieu Température

Stations

Stations météo à proximité

Emplacement de la station Température Refroidissement éolien Point de rosée Humidité Vent Precip. Alt. Mise à jour Type